sensor_id;sensor_type;location;lat;lon;timestamp;pressure;altitude;pressure_sealevel;temperature;humidity
46846;BME280;33947;46.804;134.252;2023-09-18T00:00:59;100437.03;;;19.07;80.54
46846;BME280;33947;46.804;134.252;2023-09-18T00:04:06;100434.88;;;19.27;80.10
46846;BME280;33947;46.804;134.252;2023-09-18T00:07:14;100435.19;;;19.50;79.42
46846;BME280;33947;46.804;134.252;2023-09-18T00:10:18;100446.22;;;19.60;79.08
46846;BME280;33947;46.804;134.252;2023-09-18T00:13:22;100442.72;;;19.72;78.85
46846;BME280;33947;46.804;134.252;2023-09-18T00:16:28;100427.84;;;19.79;78.61
46846;BME280;33947;46.804;134.252;2023-09-18T00:19:40;100438.38;;;19.97;78.10
46846;BME280;33947;46.804;134.252;2023-09-18T00:22:46;100454.91;;;20.18;77.99
46846;BME280;33947;46.804;134.252;2023-09-18T00:25:51;100459.03;;;20.37;77.53
46846;BME280;33947;46.804;134.252;2023-09-18T00:28:57;100454.81;;;20.59;77.20
46846;BME280;33947;46.804;134.252;2023-09-18T00:32:07;100451.66;;;20.78;76.13
46846;BME280;33947;46.804;134.252;2023-09-18T00:38:55;100359.38;;;20.73;74.63
46846;BME280;33947;46.804;134.252;2023-09-18T00:42:13;100427.91;;;21.58;73.40
46846;BME280;33947;46.804;134.252;2023-09-18T00:45:48;100457.28;;;22.47;70.75
46846;BME280;33947;46.804;134.252;2023-09-18T00:49:04;100440.50;;;23.10;68.59
46846;BME280;33947;46.804;134.252;2023-09-18T00:52:14;100432.34;;;23.44;67.22
46846;BME280;33947;46.804;134.252;2023-09-18T00:55:24;100423.81;;;23.81;65.59
46846;BME280;33947;46.804;134.252;2023-09-18T00:58:32;100412.53;;;24.40;64.23
46846;BME280;33947;46.804;134.252;2023-09-18T01:01:48;100444.50;;;25.20;61.87
46846;BME280;33947;46.804;134.252;2023-09-18T01:04:59;100425.53;;;25.79;60.12
46846;BME280;33947;46.804;134.252;2023-09-18T01:08:32;100443.97;;;26.24;58.96
46846;BME280;33947;46.804;134.252;2023-09-18T01:15:35;100452.47;;;25.62;58.27
46846;BME280;33947;46.804;134.252;2023-09-18T01:18:49;100430.19;;;25.37;58.12
46846;BME280;33947;46.804;134.252;2023-09-18T01:22:10;100393.84;;;25.28;58.36
46846;BME280;33947;46.804;134.252;2023-09-18T01:25:19;100410.88;;;25.31;57.79
46846;BME280;33947;46.804;134.252;2023-09-18T01:28:33;100413.31;;;25.24;58.09
46846;BME280;33947;46.804;134.252;2023-09-18T01:31:46;100397.59;;;25.57;58.30
46846;BME280;33947;46.804;134.252;2023-09-18T01:34:58;100401.63;;;25.72;57.27
46846;BME280;33947;46.804;134.252;2023-09-18T01:38:05;100314.28;;;25.17;57.70
46846;BME280;33947;46.804;134.252;2023-09-18T01:41:10;100385.47;;;25.61;57.40
46846;BME280;33947;46.804;134.252;2023-09-18T01:44:14;100390.00;;;25.51;57.38
46846;BME280;33947;46.804;134.252;2023-09-18T01:47:23;100365.97;;;25.56;57.20
46846;BME280;33947;46.804;134.252;2023-09-18T01:50:27;100383.56;;;25.52;56.96
46846;BME280;33947;46.804;134.252;2023-09-18T01:53:34;100372.53;;;25.43;57.32
46846;BME280;33947;46.804;134.252;2023-09-18T01:56:38;100391.31;;;25.47;57.29
46846;BME280;33947;46.804;134.252;2023-09-18T01:59:43;100398.16;;;25.41;57.59
46846;BME280;33947;46.804;134.252;2023-09-18T02:02:49;100356.91;;;25.16;58.41
46846;BME280;33947;46.804;134.252;2023-09-18T02:06:14;100388.88;;;25.53;58.62
46846;BME280;33947;46.804;134.252;2023-09-18T02:09:19;100390.44;;;25.56;58.43
46846;BME280;33947;46.804;134.252;2023-09-18T02:12:23;100379.59;;;25.46;59.04
46846;BME280;33947;46.804;134.252;2023-09-18T02:15:30;100367.81;;;25.75;57.89
46846;BME280;33947;46.804;134.252;2023-09-18T02:18:39;100364.97;;;25.86;58.03
46846;BME280;33947;46.804;134.252;2023-09-18T02:21:46;100352.66;;;25.53;59.47
46846;BME280;33947;46.804;134.252;2023-09-18T02:24:50;100359.38;;;25.49;59.89
46846;BME280;33947;46.804;134.252;2023-09-18T02:27:55;100356.59;;;25.09;61.07
46846;BME280;33947;46.804;134.252;2023-09-18T02:30:59;100346.69;;;24.79;62.12
46846;BME280;33947;46.804;134.252;2023-09-18T02:34:04;100356.06;;;25.06;61.24
46846;BME280;33947;46.804;134.252;2023-09-18T02:37:08;100347.44;;;24.91;62.35
46846;BME280;33947;46.804;134.252;2023-09-18T02:40:12;100340.44;;;25.18;61.06
46846;BME280;33947;46.804;134.252;2023-09-18T02:43:26;100235.03;;;24.82;60.95
46846;BME280;33947;46.804;134.252;2023-09-18T02:47:36;100276.34;;;24.95;60.83
46846;BME280;33947;46.804;134.252;2023-09-18T03:00:18;100308.84;;;25.07;61.13
46846;BME280;33947;46.804;134.252;2023-09-18T03:03:43;100291.97;;;25.13;60.98
46846;BME280;33947;46.804;134.252;2023-09-18T03:06:53;100300.41;;;25.10;61.04
46846;BME280;33947;46.804;134.252;2023-09-18T03:10:03;100291.38;;;24.90;61.41
46846;BME280;33947;46.804;134.252;2023-09-18T03:13:10;100294.53;;;24.95;59.95
46846;BME280;33947;46.804;134.252;2023-09-18T03:16:15;100271.03;;;24.74;61.29
46846;BME280;33947;46.804;134.252;2023-09-18T03:19:24;100285.94;;;24.80;60.78
46846;BME280;33947;46.804;134.252;2023-09-18T03:22:33;100296.47;;;24.63;61.45
46846;BME280;33947;46.804;134.252;2023-09-18T03:25:38;100294.66;;;24.42;61.96
46846;BME280;33947;46.804;134.252;2023-09-18T03:28:53;100292.06;;;24.41;62.16
46846;BME280;33947;46.804;134.252;2023-09-18T03:31:59;100263.28;;;24.19;62.94
46846;BME280;33947;46.804;134.252;2023-09-18T03:35:05;100274.75;;;24.22;62.72
46846;BME280;33947;46.804;134.252;2023-09-18T03:38:12;100275.25;;;24.57;62.56
46846;BME280;33947;46.804;134.252;2023-09-18T03:41:17;100293.84;;;25.03;61.53
46846;BME280;33947;46.804;134.252;2023-09-18T03:44:27;100275.94;;;25.10;61.33
46846;BME280;33947;46.804;134.252;2023-09-18T03:47:31;100284.50;;;25.35;60.83
46846;BME280;33947;46.804;134.252;2023-09-18T03:50:37;100276.94;;;25.28;60.68
46846;BME280;33947;46.804;134.252;2023-09-18T03:53:47;100273.91;;;25.41;59.95
46846;BME280;33947;46.804;134.252;2023-09-18T03:56:52;100274.63;;;25.43;59.38
46846;BME280;33947;46.804;134.252;2023-09-18T03:59:57;100274.50;;;25.35;59.09
46846;BME280;33947;46.804;134.252;2023-09-18T04:03:02;100265.50;;;25.15;57.87
46846;BME280;33947;46.804;134.252;2023-09-18T04:06:09;100266.63;;;25.22;56.90
46846;BME280;33947;46.804;134.252;2023-09-18T04:09:16;100250.03;;;25.15;57.39
46846;BME280;33947;46.804;134.252;2023-09-18T04:12:24;100250.75;;;25.18;57.00
46846;BME280;33947;46.804;134.252;2023-09-18T04:15:29;100259.06;;;25.26;55.40
46846;BME280;33947;46.804;134.252;2023-09-18T04:18:44;100242.19;;;25.12;56.06
46846;BME280;33947;46.804;134.252;2023-09-18T04:21:50;100259.19;;;25.34;56.38
46846;BME280;33947;46.804;134.252;2023-09-18T04:24:58;100225.03;;;25.12;55.78
46846;BME280;33947;46.804;134.252;2023-09-18T04:28:05;100226.75;;;25.13;57.30
46846;BME280;33947;46.804;134.252;2023-09-18T04:31:09;100238.16;;;25.17;56.23
46846;BME280;33947;46.804;134.252;2023-09-18T04:34:17;100249.75;;;25.38;56.68
46846;BME280;33947;46.804;134.252;2023-09-18T04:37:24;100222.44;;;25.30;56.40
46846;BME280;33947;46.804;134.252;2023-09-18T04:40:30;100232.16;;;25.52;56.54
46846;BME280;33947;46.804;134.252;2023-09-18T04:43:38;100235.84;;;25.61;56.25
46846;BME280;33947;46.804;134.252;2023-09-18T04:50:46;100219.28;;;25.25;57.41
46846;BME280;33947;46.804;134.252;2023-09-18T04:54:55;100168.13;;;24.91;57.35
46846;BME280;33947;46.804;134.252;2023-09-18T04:58:05;100217.88;;;25.21;56.67
46846;BME280;33947;46.804;134.252;2023-09-18T05:01:13;100199.69;;;25.11;57.53
46846;BME280;33947;46.804;134.252;2023-09-18T05:04:18;100207.28;;;25.08;57.86
46846;BME280;33947;46.804;134.252;2023-09-18T05:07:22;100207.88;;;25.02;57.31
46846;BME280;33947;46.804;134.252;2023-09-18T05:10:26;100211.84;;;25.17;56.09
46846;BME280;33947;46.804;134.252;2023-09-18T05:13:30;100199.56;;;25.13;55.26
46846;BME280;33947;46.804;134.252;2023-09-18T05:16:34;100204.13;;;25.32;55.17
46846;BME280;33947;46.804;134.252;2023-09-18T05:19:39;100207.25;;;25.47;53.48
46846;BME280;33947;46.804;134.252;2023-09-18T05:22:45;100196.13;;;25.21;54.30
46846;BME280;33947;46.804;134.252;2023-09-18T05:25:49;100187.22;;;25.19;53.93
46846;BME280;33947;46.804;134.252;2023-09-18T05:28:57;100178.13;;;25.10;54.81
46846;BME280;33947;46.804;134.252;2023-09-18T05:32:01;100175.09;;;25.03;55.79
46846;BME280;33947;46.804;134.252;2023-09-18T05:35:09;100161.09;;;25.08;56.00
46846;BME280;33947;46.804;134.252;2023-09-18T05:38:15;100156.50;;;25.18;56.12
46846;BME280;33947;46.804;134.252;2023-09-18T05:41:21;100171.47;;;25.42;56.56
46846;BME280;33947;46.804;134.252;2023-09-18T05:44:42;100174.63;;;25.47;56.31
46846;BME280;33947;46.804;134.252;2023-09-18T05:47:50;100159.31;;;25.36;55.94
46846;BME280;33947;46.804;134.252;2023-09-18T05:54:49;100084.59;;;24.93;55.79
46846;BME280;33947;46.804;134.252;2023-09-18T05:59:00;100124.28;;;25.23;56.02
46846;BME280;33947;46.804;134.252;2023-09-18T06:03:08;100146.28;;;25.40;55.67
46846;BME280;33947;46.804;134.252;2023-09-18T06:07:46;100030.31;;;24.63;55.11
46846;BME280;33947;46.804;134.252;2023-09-18T06:25:35;100127.16;;;25.22;56.19
46846;BME280;33947;46.804;134.252;2023-09-18T06:33:45;100016.16;;;24.60;56.45
46846;BME280;33947;46.804;134.252;2023-09-18T06:41:36;100095.72;;;25.09;56.78
46846;BME280;33947;46.804;134.252;2023-09-18T06:44:50;100078.69;;;25.17;56.57
46846;BME280;33947;46.804;134.252;2023-09-18T06:48:06;100091.94;;;25.30;56.42
46846;BME280;33947;46.804;134.252;2023-09-18T06:51:13;100078.25;;;25.22;56.60
46846;BME280;33947;46.804;134.252;2023-09-18T06:58:09;100100.47;;;25.45;55.68
46846;BME280;33947;46.804;134.252;2023-09-18T07:01:14;100094.47;;;25.41;55.53
46846;BME280;33947;46.804;134.252;2023-09-18T07:04:18;100091.38;;;25.26;55.83
46846;BME280;33947;46.804;134.252;2023-09-18T07:07:28;100095.63;;;25.39;54.41
46846;BME280;33947;46.804;134.252;2023-09-18T07:10:35;100088.81;;;25.25;54.97
46846;BME280;33947;46.804;134.252;2023-09-18T07:13:40;100086.97;;;25.15;55.50
46846;BME280;33947;46.804;134.252;2023-09-18T07:16:44;100080.88;;;24.94;55.91
46846;BME280;33947;46.804;134.252;2023-09-18T07:19:49;100072.13;;;25.10;55.19
46846;BME280;33947;46.804;134.252;2023-09-18T07:22:53;100065.81;;;25.09;55.41
46846;BME280;33947;46.804;134.252;2023-09-18T07:26:01;100036.69;;;25.02;54.29
46846;BME280;33947;46.804;134.252;2023-09-18T07:29:05;100052.09;;;25.11;54.84
46846;BME280;33947;46.804;134.252;2023-09-18T07:32:10;100049.69;;;25.08;54.53
46846;BME280;33947;46.804;134.252;2023-09-18T07:35:18;100055.72;;;24.92;55.55
46846;BME280;33947;46.804;134.252;2023-09-18T07:38:27;100069.00;;;24.95;55.52
46846;BME280;33947;46.804;134.252;2023-09-18T07:41:32;100069.31;;;24.92;54.72
46846;BME280;33947;46.804;134.252;2023-09-18T07:44:39;100058.59;;;24.70;55.45
46846;BME280;33947;46.804;134.252;2023-09-18T07:47:45;100083.34;;;24.67;55.95
46846;BME280;33947;46.804;134.252;2023-09-18T07:50:49;100073.91;;;24.42;56.35
46846;BME280;33947;46.804;134.252;2023-09-18T07:53:54;100084.91;;;24.31;56.97
46846;BME280;33947;46.804;134.252;2023-09-18T08:01:44;100094.50;;;23.84;57.84
46846;BME280;33947;46.804;134.252;2023-09-18T08:06:11;100037.78;;;23.20;58.87
46846;BME280;33947;46.804;134.252;2023-09-18T08:10:08;100054.16;;;23.19;59.16
46846;BME280;33947;46.804;134.252;2023-09-18T08:14:19;100089.09;;;23.22;59.70
46846;BME280;33947;46.804;134.252;2023-09-18T08:18:46;100026.66;;;22.71;60.20
46846;BME280;33947;46.804;134.252;2023-09-18T08:23:02;100069.00;;;22.72;60.42
46846;BME280;33947;46.804;134.252;2023-09-18T08:26:18;100136.34;;;23.08;60.84
46846;BME280;33947;46.804;134.252;2023-09-18T08:29:23;100141.19;;;22.83;61.90
46846;BME280;33947;46.804;134.252;2023-09-18T08:32:46;100140.78;;;22.88;61.79
46846;BME280;33947;46.804;134.252;2023-09-18T08:35:57;100132.19;;;22.82;61.89
46846;BME280;33947;46.804;134.252;2023-09-18T08:39:01;100132.31;;;22.60;62.68
46846;BME280;33947;46.804;134.252;2023-09-18T08:42:11;100129.56;;;22.71;62.31
46846;BME280;33947;46.804;134.252;2023-09-18T08:45:54;100111.91;;;22.55;63.27
46846;BME280;33947;46.804;134.252;2023-09-18T08:49:03;100114.63;;;22.55;63.26
46846;BME280;33947;46.804;134.252;2023-09-18T08:52:08;100114.84;;;22.52;63.52
46846;BME280;33947;46.804;134.252;2023-09-18T08:55:21;100116.56;;;22.53;63.14
46846;BME280;33947;46.804;134.252;2023-09-18T08:58:40;100095.00;;;22.31;63.36
46846;BME280;33947;46.804;134.252;2023-09-18T09:02:21;100017.97;;;21.69;63.83
46846;BME280;33947;46.804;134.252;2023-09-18T09:06:34;100024.34;;;21.57;64.08
46846;BME280;33947;46.804;134.252;2023-09-18T09:14:14;99991.97;;;21.00;69.41
46846;BME280;33947;46.804;134.252;2023-09-18T09:18:02;99989.25;;;20.66;70.28
46846;BME280;33947;46.804;134.252;2023-09-18T09:21:45;100017.47;;;20.73;68.44
46846;BME280;33947;46.804;134.252;2023-09-18T09:25:56;100146.69;;;21.25;70.99
46846;BME280;33947;46.804;134.252;2023-09-18T09:34:04;100014.72;;;20.62;68.90
46846;BME280;33947;46.804;134.252;2023-09-18T09:38:12;100080.72;;;21.05;68.83
46846;BME280;33947;46.804;134.252;2023-09-18T09:46:08;100023.00;;;20.83;68.20
46846;BME280;33947;46.804;134.252;2023-09-18T09:49:59;100054.44;;;20.84;68.89
46846;BME280;33947;46.804;134.252;2023-09-18T09:58:26;100168.59;;;21.45;69.85
46846;BME280;33947;46.804;134.252;2023-09-18T10:06:28;100058.19;;;20.70;70.80
46846;BME280;33947;46.804;134.252;2023-09-18T10:10:15;100107.13;;;20.77;71.98
46846;BME280;33947;46.804;134.252;2023-09-18T10:14:19;100128.41;;;20.81;75.51
46846;BME280;33947;46.804;134.252;2023-09-18T10:18:28;100129.66;;;20.89;72.55
46846;BME280;33947;46.804;134.252;2023-09-18T10:22:46;100132.03;;;21.16;73.46
46846;BME280;33947;46.804;134.252;2023-09-18T10:27:00;100129.06;;;20.96;73.71
46846;BME280;33947;46.804;134.252;2023-09-18T10:31:17;100129.72;;;20.76;75.56
46846;BME280;33947;46.804;134.252;2023-09-18T10:34:55;100104.97;;;20.58;74.94
46846;BME280;33947;46.804;134.252;2023-09-18T10:38:29;100197.34;;;21.10;75.24
46846;BME280;33947;46.804;134.252;2023-09-18T10:46:11;100163.72;;;20.78;75.14
46846;BME280;33947;46.804;134.252;2023-09-18T10:50:11;100117.25;;;20.62;76.20
46846;BME280;33947;46.804;134.252;2023-09-18T10:58:32;100121.69;;;20.63;79.30
46846;BME280;33947;46.804;134.252;2023-09-18T11:07:02;100210.06;;;20.96;79.59
46846;BME280;33947;46.804;134.252;2023-09-18T11:10:31;100169.19;;;20.90;79.68
46846;BME280;33947;46.804;134.252;2023-09-18T11:13:40;100186.19;;;21.03;83.05
46846;BME280;33947;46.804;134.252;2023-09-18T11:16:49;100178.34;;;21.11;79.10
46846;BME280;33947;46.804;134.252;2023-09-18T11:23:35;100164.03;;;20.98;80.35
46846;BME280;33947;46.804;134.252;2023-09-18T11:26:42;100168.03;;;21.17;78.95
46846;BME280;33947;46.804;134.252;2023-09-18T11:29:51;100154.28;;;21.20;78.75
46846;BME280;33947;46.804;134.252;2023-09-18T11:32:57;100150.38;;;21.24;79.17
46846;BME280;33947;46.804;134.252;2023-09-18T11:39:39;100147.06;;;21.32;80.40
46846;BME280;33947;46.804;134.252;2023-09-18T11:43:27;100141.66;;;21.32;81.30
46846;BME280;33947;46.804;134.252;2023-09-18T11:46:35;100139.69;;;21.34;80.92
46846;BME280;33947;46.804;134.252;2023-09-18T11:52:57;100130.47;;;21.25;81.36
46846;BME280;33947;46.804;134.252;2023-09-18T11:56:03;100141.66;;;21.32;81.20
46846;BME280;33947;46.804;134.252;2023-09-18T11:59:08;100150.25;;;21.25;81.64
46846;BME280;33947;46.804;134.252;2023-09-18T12:02:28;100147.91;;;21.21;81.62
46846;BME280;33947;46.804;134.252;2023-09-18T12:05:39;100139.06;;;21.19;81.40
46846;BME280;33947;46.804;134.252;2023-09-18T12:08:51;100085.03;;;20.72;81.52
46846;BME280;33947;46.804;134.252;2023-09-18T12:12:30;100063.28;;;20.62;81.28
46846;BME280;33947;46.804;134.252;2023-09-18T12:16:40;100038.47;;;20.45;81.33
46846;BME280;33947;46.804;134.252;2023-09-18T12:20:29;100060.09;;;20.57;81.91
46846;BME280;33947;46.804;134.252;2023-09-18T12:24:33;100014.50;;;20.29;81.47
46846;BME280;33947;46.804;134.252;2023-09-18T12:27:58;100065.50;;;20.57;81.60
46846;BME280;33947;46.804;134.252;2023-09-18T12:31:15;100130.78;;;20.98;81.35
46846;BME280;33947;46.804;134.252;2023-09-18T12:34:21;100127.69;;;20.91;81.95
46846;BME280;33947;46.804;134.252;2023-09-18T12:37:26;100111.97;;;20.85;81.93
46846;BME280;33947;46.804;134.252;2023-09-18T12:40:31;100104.44;;;20.77;82.64
46846;BME280;33947;46.804;134.252;2023-09-18T12:43:41;100115.66;;;20.84;82.39
46846;BME280;33947;46.804;134.252;2023-09-18T12:46:48;100114.78;;;20.83;82.34
46846;BME280;33947;46.804;134.252;2023-09-18T12:50:02;100111.47;;;20.79;82.59
46846;BME280;33947;46.804;134.252;2023-09-18T12:56:14;100127.44;;;20.58;85.07
46846;BME280;33947;46.804;134.252;2023-09-18T12:59:19;100134.59;;;20.71;83.18
46846;BME280;33947;46.804;134.252;2023-09-18T13:02:32;100137.06;;;20.74;83.44
46846;BME280;33947;46.804;134.252;2023-09-18T13:05:38;100134.50;;;20.72;84.02
46846;BME280;33947;46.804;134.252;2023-09-18T13:08:42;100131.06;;;20.70;84.13
46846;BME280;33947;46.804;134.252;2023-09-18T13:11:54;100148.84;;;20.73;84.91
46846;BME280;33947;46.804;134.252;2023-09-18T13:15:29;100147.59;;;20.65;85.87
46846;BME280;33947;46.804;134.252;2023-09-18T13:18:34;100128.03;;;20.50;86.20
46846;BME280;33947;46.804;134.252;2023-09-18T13:21:49;100142.53;;;20.61;86.42
46846;BME280;33947;46.804;134.252;2023-09-18T13:25:09;100139.22;;;20.57;86.94
46846;BME280;33947;46.804;134.252;2023-09-18T13:28:20;100144.72;;;20.56;87.18
46846;BME280;33947;46.804;134.252;2023-09-18T13:31:28;100145.31;;;20.48;87.61
46846;BME280;33947;46.804;134.252;2023-09-18T13:34:43;100121.69;;;20.38;87.47
46846;BME280;33947;46.804;134.252;2023-09-18T13:37:53;100137.97;;;20.50;87.38
46846;BME280;33947;46.804;134.252;2023-09-18T13:41:09;100127.75;;;20.42;87.48
46846;BME280;33947;46.804;134.252;2023-09-18T13:44:21;100146.16;;;20.48;87.83
46846;BME280;33947;46.804;134.252;2023-09-18T13:47:30;100136.91;;;20.39;87.78
46846;BME280;33947;46.804;134.252;2023-09-18T13:50:37;100128.22;;;20.36;88.14
46846;BME280;33947;46.804;134.252;2023-09-18T13:53:45;100105.81;;;20.22;87.67
46846;BME280;33947;46.804;134.252;2023-09-18T13:56:53;100109.19;;;20.37;87.30
46846;BME280;33947;46.804;134.252;2023-09-18T14:00:02;100129.63;;;20.53;86.69
46846;BME280;33947;46.804;134.252;2023-09-18T14:03:16;100114.22;;;20.31;87.75
46846;BME280;33947;46.804;134.252;2023-09-18T14:06:32;100121.16;;;20.22;87.76
46846;BME280;33947;46.804;134.252;2023-09-18T14:09:43;100125.56;;;20.23;87.50
46846;BME280;33947;46.804;134.252;2023-09-18T14:12:50;100119.28;;;20.22;87.31
46846;BME280;33947;46.804;134.252;2023-09-18T14:15:57;100117.94;;;20.17;87.16
46846;BME280;33947;46.804;134.252;2023-09-18T14:19:10;100148.06;;;20.35;87.24
46846;BME280;33947;46.804;134.252;2023-09-18T14:22:16;100137.50;;;20.32;86.97
46846;BME280;33947;46.804;134.252;2023-09-18T14:25:24;100129.97;;;20.24;87.28
46846;BME280;33947;46.804;134.252;2023-09-18T14:28:32;100141.31;;;20.16;87.76
46846;BME280;33947;46.804;134.252;2023-09-18T14:31:39;100133.97;;;20.18;87.69
46846;BME280;33947;46.804;134.252;2023-09-18T14:34:44;100121.19;;;20.09;87.21
46846;BME280;33947;46.804;134.252;2023-09-18T14:37:50;100125.06;;;20.18;87.00
46846;BME280;33947;46.804;134.252;2023-09-18T14:40:55;100130.53;;;20.16;86.95
46846;BME280;33947;46.804;134.252;2023-09-18T14:44:09;100122.16;;;20.08;87.27
46846;BME280;33947;46.804;134.252;2023-09-18T14:47:16;100120.16;;;19.99;87.80
46846;BME280;33947;46.804;134.252;2023-09-18T14:50:29;100115.28;;;20.04;87.66
46846;BME280;33947;46.804;134.252;2023-09-18T14:53:33;100117.75;;;20.07;87.43
46846;BME280;33947;46.804;134.252;2023-09-18T14:56:40;100124.22;;;20.04;87.50
46846;BME280;33947;46.804;134.252;2023-09-18T14:59:47;100122.97;;;20.21;86.84
46846;BME280;33947;46.804;134.252;2023-09-18T15:02:52;100127.47;;;20.09;87.07
46846;BME280;33947;46.804;134.252;2023-09-18T15:05:56;100122.16;;;20.08;87.36
46846;BME280;33947;46.804;134.252;2023-09-18T15:09:01;100112.06;;;19.99;87.66
46846;BME280;33947;46.804;134.252;2023-09-18T15:12:07;100113.19;;;20.07;86.66
46846;BME280;33947;46.804;134.252;2023-09-18T15:15:11;100129.28;;;20.09;87.03
46846;BME280;33947;46.804;134.252;2023-09-18T15:18:16;100049.31;;;19.59;86.82
46846;BME280;33947;46.804;134.252;2023-09-18T15:21:23;100116.72;;;19.97;87.37
46846;BME280;33947;46.804;134.252;2023-09-18T15:24:28;100104.81;;;19.86;87.40
46846;BME280;33947;46.804;134.252;2023-09-18T15:27:37;100102.75;;;19.65;88.08
46846;BME280;33947;46.804;134.252;2023-09-18T15:30:50;100135.66;;;20.08;86.71
46846;BME280;33947;46.804;134.252;2023-09-18T15:34:07;100130.72;;;19.89;87.40
46846;BME280;33947;46.804;134.252;2023-09-18T15:37:26;100119.88;;;19.64;87.93
46846;BME280;33947;46.804;134.252;2023-09-18T15:40:32;100127.66;;;19.56;88.86
46846;BME280;33947;46.804;134.252;2023-09-18T15:43:37;100138.19;;;19.72;88.50
46846;BME280;33947;46.804;134.252;2023-09-18T15:47:03;100134.41;;;19.75;88.49
46846;BME280;33947;46.804;134.252;2023-09-18T15:50:10;100121.28;;;19.70;88.23
46846;BME280;33947;46.804;134.252;2023-09-18T15:53:15;100104.78;;;19.62;88.73
46846;BME280;33947;46.804;134.252;2023-09-18T15:56:20;100105.22;;;19.69;89.12
46846;BME280;33947;46.804;134.252;2023-09-18T15:59:26;100124.06;;;19.81;88.64
46846;BME280;33947;46.804;134.252;2023-09-18T16:02:39;100094.66;;;19.65;89.37
46846;BME280;33947;46.804;134.252;2023-09-18T16:05:49;100126.22;;;19.76;89.24
46846;BME280;33947;46.804;134.252;2023-09-18T16:08:56;100119.72;;;19.79;89.47
46846;BME280;33947;46.804;134.252;2023-09-18T16:12:05;100109.31;;;19.61;90.23
46846;BME280;33947;46.804;134.252;2023-09-18T16:15:20;100111.56;;;19.67;90.38
46846;BME280;33947;46.804;134.252;2023-09-18T16:18:26;100121.09;;;19.47;91.74
46846;BME280;33947;46.804;134.252;2023-09-18T16:21:38;100105.06;;;19.33;91.50
46846;BME280;33947;46.804;134.252;2023-09-18T16:24:50;100129.22;;;19.72;91.01
46846;BME280;33947;46.804;134.252;2023-09-18T16:27:57;100116.44;;;19.62;91.88
46846;BME280;33947;46.804;134.252;2023-09-18T16:31:07;100105.97;;;19.58;92.08
46846;BME280;33947;46.804;134.252;2023-09-18T16:34:14;100094.81;;;19.51;92.00
46846;BME280;33947;46.804;134.252;2023-09-18T16:37:23;100086.81;;;19.49;92.01
46846;BME280;33947;46.804;134.252;2023-09-18T16:40:28;100074.88;;;19.28;93.10
46846;BME280;33947;46.804;134.252;2023-09-18T16:43:41;100087.03;;;19.33;92.99
46846;BME280;33947;46.804;134.252;2023-09-18T16:46:59;100106.44;;;19.38;93.21
46846;BME280;33947;46.804;134.252;2023-09-18T16:50:10;100102.16;;;19.36;93.19
46846;BME280;33947;46.804;134.252;2023-09-18T16:53:16;100073.06;;;19.15;92.92
46846;BME280;33947;46.804;134.252;2023-09-18T16:56:25;100095.78;;;19.24;93.72
46846;BME280;33947;46.804;134.252;2023-09-18T16:59:42;100096.84;;;19.21;93.74
46846;BME280;33947;46.804;134.252;2023-09-18T17:02:47;100092.13;;;19.25;93.41
46846;BME280;33947;46.804;134.252;2023-09-18T17:05:55;100081.66;;;19.33;93.35
46846;BME280;33947;46.804;134.252;2023-09-18T17:09:13;100083.59;;;19.44;93.38
46846;BME280;33947;46.804;134.252;2023-09-18T17:12:20;100066.25;;;19.22;93.80
46846;BME280;33947;46.804;134.252;2023-09-18T17:15:27;100076.34;;;19.45;93.37
46846;BME280;33947;46.804;134.252;2023-09-18T17:18:42;100069.59;;;19.39;93.31
46846;BME280;33947;46.804;134.252;2023-09-18T17:22:11;100081.88;;;19.43;93.33
46846;BME280;33947;46.804;134.252;2023-09-18T17:29:15;99970.78;;;18.76;93.97
46846;BME280;33947;46.804;134.252;2023-09-18T17:33:14;99935.69;;;18.52;93.88
46846;BME280;33947;46.804;134.252;2023-09-18T17:36:44;99924.53;;;18.58;94.03
46846;BME280;33947;46.804;134.252;2023-09-18T17:40:27;99908.69;;;18.41;94.15
46846;BME280;33947;46.804;134.252;2023-09-18T17:44:40;100024.16;;;19.21;94.18
46846;BME280;33947;46.804;134.252;2023-09-18T17:48:31;100006.56;;;19.29;93.33
46846;BME280;33947;46.804;134.252;2023-09-18T17:52:41;99954.94;;;18.85;94.27
46846;BME280;33947;46.804;134.252;2023-09-18T17:56:29;100035.97;;;19.32;94.86
46846;BME280;33947;46.804;134.252;2023-09-18T18:04:55;99925.88;;;18.77;94.58
46846;BME280;33947;46.804;134.252;2023-09-18T18:08:33;99906.84;;;18.80;95.03
46846;BME280;33947;46.804;134.252;2023-09-18T18:12:59;99894.16;;;18.69;94.83
46846;BME280;33947;46.804;134.252;2023-09-18T18:16:47;99818.78;;;18.32;95.07
46846;BME280;33947;46.804;134.252;2023-09-18T18:20:27;99823.94;;;18.35;95.24
46846;BME280;33947;46.804;134.252;2023-09-18T18:24:40;99814.34;;;18.44;95.81
46846;BME280;33947;46.804;134.252;2023-09-18T18:32:18;99957.41;;;19.14;96.19
46846;BME280;33947;46.804;134.252;2023-09-18T18:35:38;99963.31;;;19.19;96.30
46846;BME280;33947;46.804;134.252;2023-09-18T18:43:14;99853.91;;;18.68;95.86
46846;BME280;33947;46.804;134.252;2023-09-18T18:50:32;99892.28;;;18.95;95.95
46846;BME280;33947;46.804;134.252;2023-09-18T18:58:02;99815.97;;;18.59;96.18